Time;durP1;ratioP1;P1;durP2;ratioP2;P2;SDS_P1;SDS_P2;PMS_P1;PMS_P2;Temp;Humidity;BMP_temperature;BMP_pressure;BME280_temperature;BME280_humidity;BME280_pressure;Samples;Min_cycle;Max_cycle;Signal;HPM_P1;HPM_P2
2022/06/20 00:01:07;;;;;;;7.70;4.28;;;;;;;17.58;70.41;98445.09;5028226;28;20049;-78
2022/06/20 00:03:41;;;;;;;7.72;5.72;;;;;;;16.43;73.54;98448.94;5026332;28;20037;-78
2022/06/20 00:06:13;;;;;;;11.85;5.22;;;;;;;15.02;77.14;98442.91;5028970;28;20032;-78
2022/06/20 00:08:39;;;;;;;11.93;5.88;;;;;;;15.28;78.31;98446.09;5029505;28;20033;-78
2022/06/20 00:11:05;;;;;;;7.20;6.03;;;;;;;15.92;75.58;98431.22;5021633;28;20030;-78
2022/06/20 00:13:33;;;;;;;10.10;6.57;;;;;;;15.73;76.14;98418.56;5041523;28;20128;-77
2022/06/20 00:16:01;;;;;;;8.18;4.55;;;;;;;17.54;71.02;98463.00;4986436;28;20497;-78
2022/06/20 00:18:28;;;;;;;12.02;7.78;;;;;;;15.55;76.86;98435.50;5021859;28;20485;-78
2022/06/20 00:20:54;;;;;;;10.98;7.72;;;;;;;15.83;76.53;98409.56;5023946;28;20025;-78
2022/06/20 00:23:19;;;;;;;11.52;8.38;;;;;;;15.80;76.61;98418.22;5028852;28;20025;-78
2022/06/20 00:25:45;;;;;;;8.57;6.20;;;;;;;15.99;75.96;98445.13;5009215;28;20504;-78
2022/06/20 00:28:12;;;;;;;11.73;6.90;;;;;;;15.67;76.56;98429.69;5025549;28;20033;-78
2022/06/20 00:30:38;;;;;;;14.48;9.57;;;;;;;14.72;80.41;98439.75;5022645;28;20527;-77
2022/06/20 00:33:04;;;;;;;14.95;9.57;;;;;;;14.97;80.29;98464.47;5021909;28;20017;-78
2022/06/20 00:35:29;;;;;;;10.15;7.50;;;;;;;15.51;78.78;98458.69;5028455;28;20038;-78
2022/06/20 00:37:58;;;;;;;14.57;11.15;;;;;;;15.03;79.42;98452.56;5025016;28;20037;-78
2022/06/20 00:40:40;;;;;;;11.02;7.32;;;;;;;14.74;80.74;98413.41;5029682;28;20030;-78
2022/06/20 00:43:09;;;;;;;16.50;10.43;;;;;;;14.81;81.91;98448.78;5027049;28;20148;-78
2022/06/20 00:45:40;;;;;;;16.65;11.88;;;;;;;15.46;78.04;98453.41;5020067;28;20029;-78
2022/06/20 00:48:13;;;;;;;13.98;10.70;;;;;;;15.44;78.84;98449.41;5026538;28;20512;-78
2022/06/20 00:50:38;;;;;;;15.63;9.80;;;;;;;15.47;79.81;98478.41;5026532;28;20108;-78
2022/06/20 00:53:14;;;;;;;16.05;11.77;;;;;;;14.67;81.59;98478.22;5027102;28;20545;-78
2022/06/20 00:55:48;;;;;;;12.27;10.57;;;;;;;15.14;80.49;98466.66;5024849;28;20033;-78
2022/06/20 00:58:24;;;;;;;19.08;13.45;;;;;;;14.68;81.39;98463.69;5038261;28;20064;-78
2022/06/20 01:00:50;;;;;;;;;;;;;;;14.87;79.99;98472.63;5027759;28;20200;-77
2022/06/20 01:03:21;;;;;;;22.17;14.23;;;;;;;14.96;80.38;98454.78;5025542;28;20376;-78
2022/06/20 01:05:52;;;;;;;15.93;12.55;;;;;;;15.44;78.41;98460.16;5026915;28;20034;-78
2022/06/20 01:08:37;;;;;;;16.90;14.77;;;;;;;14.38;82.41;98453.25;5024738;28;20033;-78
2022/06/20 01:11:06;;;;;;;11.88;8.90;;;;;;;16.03;76.94;98451.50;5027332;28;20033;-78
2022/06/20 01:13:32;;;;;;;17.00;11.60;;;;;;;14.77;81.47;98443.19;5027062;28;20118;-78
2022/06/20 01:16:13;;;;;;;19.10;12.38;;;;;;;15.14;79.44;98437.09;5009466;28;20043;-78
2022/06/20 01:18:40;;;;;;;18.95;13.57;;;;;;;15.34;78.86;98439.53;5027742;28;20029;-78
2022/06/20 01:21:12;;;;;;;21.65;15.82;;;;;;;14.72;81.27;98439.75;5028399;28;20029;-78
2022/06/20 01:23:58;;;;;;;27.85;18.08;;;;;;;14.54;83.39;98430.53;5027845;28;20057;-77
2022/06/20 01:26:36;;;;;;;25.77;17.70;;;;;;;14.43;83.25;98438.97;5026383;28;20070;-78
2022/06/20 01:29:05;;;;;;;18.77;15.90;;;;;;;14.91;81.47;98435.25;5027951;28;20037;-78
2022/06/20 01:31:35;;;;;;;13.82;9.90;;;;;;;15.89;78.09;98421.84;5025359;28;20030;-78
2022/06/20 01:34:02;;;;;;;14.13;12.15;;;;;;;16.01;76.44;98432.16;5026871;28;20044;-78
2022/06/20 01:39:17;;;;;;;16.88;13.52;;;;;;;15.48;77.98;98424.34;5026975;28;20036;-78
2022/06/20 01:44:31;;;;;;;14.40;11.30;;;;;;;15.83;78.46;98414.94;5020063;28;20036;-78
2022/06/20 01:46:57;;;;;;;20.02;12.48;;;;;;;16.38;76.02;98426.69;5002863;28;20037;-78
2022/06/20 01:49:24;;;;;;;14.60;10.77;;;;;;;16.78;74.03;98406.28;5023026;28;20031;-78
2022/06/20 01:52:07;;;;;;;16.73;15.02;;;;;;;15.38;78.42;98410.16;5019634;28;20032;-78
2022/06/20 01:54:37;;;;;;;23.02;15.95;;;;;;;15.05;80.41;98398.50;5023772;28;20371;-78
2022/06/20 01:57:05;;;;;;;18.08;16.17;;;;;;;14.62;81.36;98404.94;5023290;28;20033;-78
2022/06/20 01:59:37;;;;;;;22.08;14.77;;;;;;;15.47;78.96;98397.69;5017050;28;20045;-78
2022/06/20 02:02:03;;;;;;;14.68;13.07;;;;;;;16.19;76.16;98397.09;5026135;28;20126;-78
2022/06/20 02:04:34;;;;;;;18.58;14.63;;;;;;;15.27;78.76;98381.81;5024347;28;20034;-78
2022/06/20 02:07:02;;;;;;;12.32;10.60;;;;;;;15.36;79.69;98372.00;5040021;28;20107;-78
2022/06/20 02:09:28;;;;;;;15.05;11.55;;;;;;;15.76;78.19;98376.84;5024224;28;20029;-78
2022/06/20 02:11:53;;;;;;;14.95;10.80;;;;;;;15.62;78.51;98359.81;5024518;28;20493;-78
2022/06/20 02:14:57;;;;;;;15.35;13.73;;;;;;;15.05;79.61;98355.50;5028969;28;20110;-78
2022/06/20 02:17:29;;;;;;;12.50;10.63;;;;;;;15.00;81.00;98336.78;5026502;28;20117;-78
2022/06/20 02:19:56;;;;;;;14.30;10.80;;;;;;;15.33;80.46;98326.91;5027682;28;20035;-78
2022/06/20 02:22:23;;;;;;;18.60;15.50;;;;;;;14.65;81.82;98332.66;5027676;28;20451;-78
2022/06/20 02:24:54;;;;;;;13.70;10.75;;;;;;;15.73;77.99;98337.84;5030533;28;20469;-78
2022/06/20 02:27:28;;;;;;;11.60;10.27;;;;;;;16.92;73.96;98345.91;5025918;28;20303;-78
2022/06/20 02:29:54;;;;;;;16.27;8.95;;;;;;;16.72;74.12;98334.72;5029754;28;20481;-78
2022/06/20 02:32:26;;;;;;;10.48;8.40;;;;;;;16.97;73.86;98326.91;5027916;28;20061;-78
2022/06/20 02:34:53;;;;;;;11.25;8.90;;;;;;;16.95;72.73;98310.25;5030064;28;20073;-78
2022/06/20 02:37:24;;;;;;;15.65;12.52;;;;;;;16.64;73.97;98308.50;5009919;28;20035;-78
2022/06/20 02:39:58;;;;;;;11.65;8.90;;;;;;;17.29;72.05;98292.78;5027273;28;20025;-78
2022/06/20 02:42:32;;;;;;;10.55;7.97;;;;;;;17.53;71.35;98299.50;5030186;28;20037;-79
2022/06/20 02:44:58;;;;;;;14.63;9.23;;;;;;;18.00;70.49;98303.44;5026739;28;20041;-79
2022/06/20 02:47:26;;;;;;;8.63;7.82;;;;;;;18.08;70.58;98299.22;5028764;28;20021;-78
2022/06/20 02:49:55;;;;;;;13.75;8.07;;;;;;;18.17;70.34;98321.66;5009735;28;20031;-79
2022/06/20 02:52:28;;;;;;;11.45;8.52;;;;;;;18.21;70.25;98344.25;5024347;28;20518;-79
2022/06/20 02:54:54;;;;;;;10.45;7.78;;;;;;;18.23;70.61;98369.03;5024281;28;20200;-79
2022/06/20 02:57:37;;;;;;;9.60;8.60;;;;;;;18.27;70.10;98389.75;5041842;28;20037;-80
2022/06/20 03:00:08;;;;;;;14.35;8.48;;;;;;;18.25;70.62;98415.47;5024827;28;20555;-79
2022/06/20 03:02:39;;;;;;;11.55;9.65;;;;;;;18.26;70.60;98442.16;5024549;28;20033;-79
2022/06/20 03:05:05;;;;;;;11.02;8.68;;;;;;;18.16;71.13;98546.97;5038110;28;20570;-79
2022/06/20 03:07:36;;;;;;;12.68;9.23;;;;;;;17.70;73.43;98663.25;5023867;28;20041;-79
2022/06/20 03:10:21;;;;;;;15.20;10.20;;;;;;;17.30;74.69;98707.13;5023009;28;20615;-80
2022/06/20 03:12:46;;;;;;;27.10;13.13;;;;;;;17.32;74.61;98616.69;5023683;28;20017;-79
2022/06/20 03:15:12;;;;;;;16.00;10.85;;;;;;;17.36;74.34;98538.66;5023981;28;20528;-79
2022/06/20 03:17:41;;;;;;;19.17;12.57;;;;;;;17.41;73.68;98541.28;5007865;28;20317;-79
2022/06/20 03:20:13;;;;;;;16.80;12.85;;;;;;;16.24;77.48;98526.28;5025753;28;20309;-79
2022/06/20 03:22:46;;;;;;;15.70;12.07;;;;;;;15.74;80.45;98535.09;5022061;28;20033;-80
2022/06/20 03:25:14;;;;;;;14.85;10.75;;;;;;;17.28;75.03;98566.34;5021609;28;20392;-80
2022/06/20 03:27:40;;;;;;;15.52;10.32;;;;;;;17.38;74.39;98571.53;5022771;28;20021;-79
2022/06/20 03:30:21;;;;;;;13.18;9.80;;;;;;;17.64;73.43;98583.47;5023695;28;20513;-79
2022/06/20 03:32:46;;;;;;;11.27;7.90;;;;;;;17.72;73.24;98586.25;5023858;28;20067;-80
2022/06/20 03:35:12;;;;;;;10.18;8.23;;;;;;;17.75;73.11;98596.47;5008123;28;20493;-79
2022/06/20 03:37:37;;;;;;;9.07;8.18;;;;;;;17.67;73.29;98617.97;5021942;28;20033;-79
2022/06/20 03:40:05;;;;;;;11.48;7.90;;;;;;;17.68;73.40;98612.25;5020886;28;20091;-79
2022/06/20 03:42:30;;;;;;;8.45;7.28;;;;;;;17.54;74.14;98595.25;5033659;28;20043;-80
2022/06/20 03:44:59;;;;;;;14.77;8.52;;;;;;;15.27;80.17;98443.66;5038760;28;20025;-79
2022/06/20 03:47:39;;;;;;;11.35;7.22;;;;;;;13.34;88.42;98277.56;5022688;28;20029;-79
2022/06/20 03:50:18;;;;;;;11.32;9.90;;;;;;;13.17;90.02;98242.28;5021657;28;20104;-79
2022/06/20 03:52:53;;;;;;;15.57;10.70;;;;;;;12.47;93.62;98175.81;5022598;28;20026;-78
2022/06/20 03:55:36;;;;;;;17.98;12.43;;;;;;;13.11;93.43;98173.75;5032010;28;20033;-79
2022/06/20 03:58:13;;;;;;;14.05;11.43;;;;;;;13.70;91.40;98226.28;5024106;28;20854;-79
2022/06/20 04:00:57;;;;;;;14.60;12.23;;;;;;;14.65;87.94;98356.81;5023304;28;20074;-79
2022/06/20 04:03:28;;;;;;;9.88;8.00;;;;;;;16.20;80.36;98417.56;5038489;28;20026;-81
2022/06/20 04:06:04;;;;;;;10.65;9.20;;;;;;;16.14;79.17;98418.72;5041196;28;20040;-81
2022/06/20 04:11:32;;;;;;;9.65;8.65;;;;;;;16.47;79.11;98403.34;5024531;28;20172;-81
2022/06/20 04:14:12;;;;;;;9.18;8.25;;;;;;;17.23;76.13;98429.66;5022884;28;20029;-81
2022/06/20 04:16:51;;;;;;;10.20;7.75;;;;;;;17.64;74.63;98437.72;5025100;28;20571;-81
2022/06/20 04:19:30;;;;;;;8.45;7.10;;;;;;;17.69;74.78;98445.72;5024207;28;20028;-81
2022/06/20 04:22:08;;;;;;;10.73;9.63;;;;;;;15.17;81.47;98382.78;5021051;28;20025;-81
2022/06/20 04:24:46;;;;;;;12.63;11.32;;;;;;;14.67;85.99;98397.63;5022712;28;20025;-81
2022/06/20 04:27:39;;;;;;;18.13;13.63;;;;;;;14.56;86.68;98365.78;5018390;28;20059;-81
2022/06/20 04:30:10;;;;;;;13.27;11.50;;;;;;;14.13;87.12;98354.13;5020367;28;20527;-81
2022/06/20 04:32:44;;;;;;;13.50;11.85;;;;;;;13.99;88.15;98342.44;5022379;28;20480;-80
2022/06/20 04:35:21;;;;;;;11.10;9.85;;;;;;;14.81;86.55;98339.41;5020727;28;20082;-80
2022/06/20 04:37:49;;;;;;;12.63;11.13;;;;;;;14.33;87.43;98294.88;5019803;28;20404;-80
2022/06/20 04:40:30;;;;;;;12.88;10.65;;;;;;;14.44;86.01;98280.25;5023514;28;20036;-80
2022/06/20 04:43:07;;;;;;;9.50;8.60;;;;;;;14.65;86.52;98251.25;5023164;28;20384;-80
2022/06/20 04:45:44;;;;;;;13.98;10.45;;;;;;;15.06;86.15;98251.47;5029783;28;20032;-80
2022/06/20 04:48:20;;;;;;;8.07;7.05;;;;;;;16.60;80.06;98280.56;5026331;28;20032;-80
2022/06/20 04:50:50;;;;;;;;;;;;;;;15.12;84.13;98271.81;5030271;28;20112;-80
2022/06/20 04:53:23;;;;;;;16.92;11.38;;;;;;;15.55;82.40;98271.41;5029539;28;19913;-80
2022/06/20 04:55:52;;;;;;;13.82;11.02;;;;;;;15.54;81.61;98250.19;5021785;28;20083;-80
2022/06/20 04:58:23;;;;;;;15.18;11.48;;;;;;;15.41;82.90;98254.41;5006898;28;20446;-80
2022/06/20 05:00:51;;;;;;;12.85;10.85;;;;;;;16.27;80.01;98277.16;5022573;28;20453;-80
2022/06/20 05:03:39;;;;;;;12.18;9.65;;;;;;;15.56;82.50;98274.91;5017090;28;20065;-80
2022/06/20 05:06:08;;;;;;;11.93;8.48;;;;;;;16.88;79.58;98311.75;5015461;28;20053;-80
2022/06/20 05:08:39;;;;;;;12.05;10.85;;;;;;;16.12;80.00;98272.81;5021993;28;20033;-80
2022/06/20 05:11:19;;;;;;;13.73;10.07;;;;;;;15.70;81.83;98254.25;5023031;28;20079;-80
2022/06/20 05:13:55;;;;;;;12.45;10.80;;;;;;;15.19;83.09;98230.03;5025419;28;20109;-80
2022/06/20 05:16:25;;;;;;;14.18;12.43;;;;;;;14.46;86.74;98205.56;5025205;28;20801;-80
2022/06/20 05:18:59;;;;;;;15.32;10.10;;;;;;;15.79;84.18;98212.09;5035594;28;20039;-80
2022/06/20 05:21:31;;;;;;;10.60;8.80;;;;;;;16.73;79.69;98260.88;5020257;28;20037;-81
2022/06/20 05:24:03;;;;;;;12.02;8.65;;;;;;;16.10;81.21;98245.41;5018357;28;20033;-80
2022/06/20 05:26:34;;;;;;;9.15;8.20;;;;;;;15.54;83.05;98251.00;5024196;28;20037;-80
2022/06/20 05:29:04;;;;;;;10.73;8.82;;;;;;;15.58;82.14;98260.09;5021953;28;20041;-81
2022/06/20 05:31:36;;;;;;;9.27;8.38;;;;;;;15.67;83.75;98285.22;5021742;28;20034;-80
2022/06/20 05:34:12;;;;;;;9.10;6.38;;;;;;;17.16;78.26;98337.56;5024048;28;20166;-80
2022/06/20 05:36:53;;;;;;;11.60;6.45;;;;;;;17.19;76.97;98377.41;5023389;28;20025;-80
2022/06/20 05:39:28;;;;;;;6.38;5.78;;;;;;;17.05;76.87;98395.53;5020785;28;20041;-80
2022/06/20 05:41:54;;;;;;;7.35;6.65;;;;;;;16.79;76.77;98440.25;5024525;28;20034;-80
2022/06/20 05:44:20;;;;;;;7.38;5.82;;;;;;;16.91;76.76;98457.53;5024119;28;20193;-80
2022/06/20 05:46:53;;;;;;;5.78;5.32;;;;;;;17.03;75.82;98486.72;5019611;28;20048;-81
2022/06/20 05:49:41;;;;;;;6.80;5.47;;;;;;;16.63;77.06;98477.47;5019943;28;20160;-80
2022/06/20 05:52:08;;;;;;;6.68;5.78;;;;;;;16.92;75.56;98469.13;5019641;28;20025;-80
2022/06/20 05:54:50;;;;;;;9.15;6.05;;;;;;;17.06;75.27;98500.38;5020110;28;20032;-80
2022/06/20 05:57:20;;;;;;;6.82;5.63;;;;;;;16.91;75.79;98508.75;5022365;28;20028;-80
2022/06/20 05:59:54;;;;;;;5.00;4.60;;;;;;;17.00;74.62;98500.78;5022661;28;20512;-79
2022/06/20 06:02:29;;;;;;;6.65;4.50;;;;;;;17.17;74.52;98514.47;5023020;28;20095;-80
2022/06/20 06:05:21;;;;;;;5.50;4.30;;;;;;;17.14;74.70;98521.28;5021656;28;20548;-79
2022/06/20 06:08:13;;;;;;;5.43;4.03;;;;;;;17.18;74.68;98507.97;5009349;28;20038;-79
2022/06/20 06:10:52;;;;;;;5.72;5.22;;;;;;;16.93;74.82;98494.97;5025170;28;20387;-79
2022/06/20 06:13:44;;;;;;;4.85;4.45;;;;;;;16.77;76.25;98470.22;5024971;28;20121;-79
2022/06/20 06:16:46;;;;;;;4.93;4.50;;;;;;;16.56;75.95;98446.59;5007920;28;20034;-79
2022/06/20 06:19:16;;;;;;;4.43;4.07;;;;;;;16.55;77.25;98434.22;5035310;28;20018;-79
2022/06/20 06:21:43;;;;;;;3.65;3.40;;;;;;;17.01;74.96;98449.25;5025823;28;20092;-79
2022/06/20 06:24:16;;;;;;;3.22;3.03;;;;;;;16.90;75.55;98433.56;5027477;28;20041;-80
2022/06/20 06:26:44;;;;;;;3.72;3.08;;;;;;;17.06;74.87;98440.25;5007834;28;20041;-80
2022/06/20 06:29:21;;;;;;;2.97;2.72;;;;;;;16.23;77.62;98426.94;5024567;28;20033;-81
2022/06/20 06:31:52;;;;;;;4.30;2.63;;;;;;;15.12;81.64;98409.72;5021395;28;20022;-81
2022/06/20 06:34:55;;;;;;;4.78;3.15;;;;;;;14.68;84.49;98398.41;5016140;28;20040;-80
2022/06/20 06:37:31;;;;;;;3.47;2.53;;;;;;;14.89;83.81;98402.47;5018167;28;20026;-80
2022/06/20 06:40:10;;;;;;;3.47;3.17;;;;;;;13.83;86.69;98382.00;5015222;28;20026;-81
2022/06/20 06:42:38;;;;;;;3.30;2.80;;;;;;;13.43;88.73;98350.94;5014552;28;20415;-80
2022/06/20 06:45:06;;;;;;;3.40;3.10;;;;;;;13.20;89.42;98354.31;5001991;28;20068;-80
2022/06/20 06:47:45;;;;;;;2.28;2.17;;;;;;;15.43;82.90;98432.47;5015125;28;20029;-80
2022/06/20 06:50:45;;;;;;;2.85;2.60;;;;;;;15.66;81.18;98450.41;5017789;28;20512;-80
2022/06/20 06:53:11;;;;;;;2.15;2.05;;;;;;;16.09;80.06;98461.91;5018189;28;20044;-80
2022/06/20 06:55:41;;;;;;;2.47;2.28;;;;;;;16.42;78.16;98471.56;5020068;28;20124;-80
2022/06/20 06:58:29;;;;;;;3.03;1.67;;;;;;;16.22;78.00;98466.53;5021209;28;20421;-80
2022/06/20 07:01:11;;;;;;;1.48;1.38;;;;;;;16.71;76.29;98484.06;5022029;28;20017;-80
2022/06/20 07:03:45;;;;;;;1.95;1.45;;;;;;;16.94;75.27;98505.47;5025393;28;20542;-80
2022/06/20 07:06:40;;;;;;;1.60;1.35;;;;;;;16.79;75.56;98502.25;5008194;28;20033;-80
2022/06/20 07:09:27;;;;;;;1.23;1.23;;;;;;;16.94;74.84;98524.34;5034604;28;20448;-81
2022/06/20 07:12:19;;;;;;;1.98;1.40;;;;;;;16.96;75.09;98529.44;5037454;28;20473;-80
2022/06/20 07:14:56;;;;;;;2.13;1.60;;;;;;;16.63;75.67;98519.78;5025732;28;20094;-81
2022/06/20 07:17:33;;;;;;;3.40;1.30;;;;;;;16.76;75.82;98514.41;5023757;28;20069;-81
2022/06/20 07:20:01;;;;;;;4.75;1.63;;;;;;;16.15;77.37;98509.19;5018406;28;20568;-80
2022/06/20 07:22:26;;;;;;;1.40;1.30;;;;;;;16.16;77.92;98507.31;5004653;28;20037;-81
2022/06/20 07:24:54;;;;;;;1.55;1.45;;;;;;;16.50;76.27;98494.38;5020754;28;20049;-81
2022/06/20 07:27:31;;;;;;;1.50;1.40;;;;;;;15.52;79.72;98495.28;5020320;28;20022;-81
2022/06/20 07:30:04;;;;;;;1.98;1.70;;;;;;;15.34;80.05;98487.94;5019932;28;20477;-81
2022/06/20 07:32:52;;;;;;;2.47;1.60;;;;;;;13.79;85.73;98477.53;5024276;28;20500;-80
2022/06/20 07:35:30;;;;;;;3.65;1.52;;;;;;;13.76;86.37;98434.41;5022973;28;20021;-81
2022/06/20 07:38:03;;;;;;;1.95;1.85;;;;;;;13.18;89.30;98418.09;5023744;28;20385;-80
2022/06/20 07:40:42;;;;;;;6.85;2.45;;;;;;;13.85;88.07;98448.78;5040333;28;20025;-80
2022/06/20 07:43:23;;;;;;;4.95;2.25;;;;;;;14.24;86.42;98468.38;5028178;28;20067;-80
2022/06/20 07:45:51;;;;;;;1.42;1.33;;;;;;;15.77;81.35;98490.66;5016900;28;20505;-80
2022/06/20 07:48:31;;;;;;;1.38;1.27;;;;;;;16.40;77.98;98495.31;5034316;28;20444;-80
2022/06/20 07:51:22;;;;;;;1.63;1.52;;;;;;;16.74;76.32;98518.50;5021779;28;20030;-80
2022/06/20 07:53:54;;;;;;;1.38;1.10;;;;;;;16.88;75.78;98527.44;5019024;28;20442;-79
2022/06/20 07:56:34;;;;;;;1.77;1.10;;;;;;;16.89;75.34;98539.78;5017294;28;20076;-79
2022/06/20 07:59:15;;;;;;;1.30;0.90;;;;;;;16.91;74.78;98543.81;5022395;28;20527;-79
2022/06/20 08:01:51;;;;;;;3.22;1.50;;;;;;;16.62;75.93;98545.91;5021218;28;20037;-79
2022/06/20 08:04:20;;;;;;;;;;;;;;;16.81;75.25;98535.09;5022484;28;20075;-79
2022/06/20 08:06:53;;;;;;;1.92;1.75;;;;;;;16.43;75.88;98535.16;5022716;28;20377;-79
2022/06/20 08:09:40;;;;;;;2.90;1.95;;;;;;;16.74;75.41;98519.31;5014657;28;20542;-79
2022/06/20 08:12:24;;;;;;;1.85;1.75;;;;;;;16.68;75.53;98535.84;5020680;28;20138;-79
2022/06/20 08:14:55;;;;;;;4.05;2.58;;;;;;;16.47;75.65;98549.63;5022068;28;20030;-79
2022/06/20 08:17:21;;;;;;;2.08;1.88;;;;;;;16.72;75.38;98536.88;5004087;28;20366;-79
2022/06/20 08:19:48;;;;;;;1.85;1.70;;;;;;;16.97;73.96;98552.63;5018261;28;20555;-80
2022/06/20 08:22:22;;;;;;;2.55;2.20;;;;;;;16.95;74.45;98554.81;5023606;28;20029;-80
2022/06/20 08:25:09;;;;;;;2.85;2.00;;;;;;;16.59;75.66;98546.50;5020977;28;20045;-79
2022/06/20 08:27:37;;;;;;;1.90;1.80;;;;;;;16.96;74.71;98564.47;5035599;28;20473;-79
2022/06/20 08:30:09;;;;;;;1.65;1.55;;;;;;;16.78;74.56;98568.03;5020863;28;20025;-79
2022/06/20 08:32:54;;;;;;;2.35;2.00;;;;;;;16.34;75.27;98580.00;5036568;28;20423;-80
2022/06/20 08:35:42;;;;;;;3.20;2.40;;;;;;;15.54;78.71;98586.44;5027106;28;20087;-80
2022/06/20 08:38:17;;;;;;;3.20;2.90;;;;;;;15.38;77.42;98580.41;5013691;28;20952;-80
2022/06/20 08:40:46;;;;;;;2.45;2.25;;;;;;;16.31;76.88;98593.25;5018588;28;20061;-80
2022/06/20 08:43:29;;;;;;;2.97;2.42;;;;;;;15.62;77.55;98583.94;5014761;28;20029;-79
2022/06/20 08:46:04;;;;;;;2.10;1.80;;;;;;;16.42;75.89;98578.56;5014702;28;20037;-79
2022/06/20 08:48:50;;;;;;;2.45;2.25;;;;;;;16.77;74.92;98586.13;5028563;28;20504;-79
2022/06/20 08:52:07;;;;;;;3.58;2.50;;;;;;;16.58;75.42;98571.84;5029005;28;20468;-79
2022/06/20 08:54:35;;;;;;;2.63;2.42;;;;;;;15.58;77.57;98580.22;5012016;28;20034;-79
2022/06/20 08:57:09;;;;;;;2.35;2.15;;;;;;;16.09;77.21;98580.38;5014006;28;20026;-79
2022/06/20 09:00:14;;;;;;;2.85;1.92;;;;;;;16.26;76.56;98586.06;5014868;28;20100;-79
2022/06/20 09:03:06;;;;;;;1.70;1.60;;;;;;;16.04;77.21;98577.75;5023660;28;20405;-80
2022/06/20 09:05:52;;;;;;;2.08;1.88;;;;;;;15.44;79.73;98575.81;5013742;28;20610;-79
2022/06/20 09:08:30;;;;;;;2.10;1.90;;;;;;;15.85;77.49;98558.09;5025724;28;20092;-79
2022/06/20 09:11:07;;;;;;;2.28;2.08;;;;;;;14.87;79.53;98544.38;5014430;28;20719;-79
2022/06/20 09:14:01;;;;;;;1.85;1.75;;;;;;;15.40;79.19;98561.28;5028195;28;20108;-79
2022/06/20 09:16:45;;;;;;;2.17;2.05;;;;;;;15.51;76.22;98557.44;5013981;28;20029;-79
2022/06/20 09:19:19;;;;;;;2.20;2.00;;;;;;;15.51;79.62;98560.13;5016954;28;20070;-79
2022/06/20 09:21:55;;;;;;;2.30;1.77;;;;;;;16.30;75.15;98549.38;5015021;28;20034;-79
2022/06/20 09:24:24;;;;;;;1.90;1.70;;;;;;;15.91;75.90;98567.69;5025840;28;20381;-79
2022/06/20 09:26:58;;;;;;;2.72;1.75;;;;;;;15.33;76.13;98574.28;5026013;28;20026;-79
2022/06/20 09:30:05;;;;;;;3.25;2.47;;;;;;;15.61;78.17;98576.97;5023000;28;20030;-79
2022/06/20 09:32:58;;;;;;;1.52;1.42;;;;;;;15.27;75.48;98578.91;5029791;28;20115;-79
2022/06/20 09:35:44;;;;;;;2.33;1.35;;;;;;;14.44;76.01;98581.00;5026448;28;20021;-79
2022/06/20 09:38:35;;;;;;;1.58;1.48;;;;;;;15.62;76.56;98580.44;5027383;28;20040;-79
2022/06/20 09:41:17;;;;;;;3.88;1.90;;;;;;;15.88;76.03;98595.19;5021467;28;20456;-79
2022/06/20 09:44:03;;;;;;;1.60;1.60;;;;;;;15.84;75.29;98601.41;5025725;28;20520;-79
2022/06/20 09:46:47;;;;;;;1.20;1.20;;;;;;;16.27;73.69;98589.56;5023638;28;20041;-79
2022/06/20 09:49:33;;;;;;;1.85;1.42;;;;;;;16.58;73.68;98596.09;5020847;28;20026;-80
2022/06/20 09:52:17;;;;;;;1.57;1.30;;;;;;;16.72;72.68;98593.47;5027743;28;20489;-80
2022/06/20 09:54:54;;;;;;;1.83;1.50;;;;;;;16.68;72.81;98593.25;5027665;28;20104;-80
2022/06/20 09:57:38;;;;;;;1.05;1.05;;;;;;;16.32;73.19;98598.34;5012629;28;20708;-80
2022/06/20 10:00:14;;;;;;;1.35;1.20;;;;;;;16.67;72.88;98620.50;5032392;28;20029;-79
2022/06/20 10:02:39;;;;;;;1.83;1.73;;;;;;;16.73;72.89;98624.72;5025095;28;20116;-80
2022/06/20 10:05:37;;;;;;;1.35;1.25;;;;;;;16.83;72.34;98638.03;5025890;28;20100;-79
2022/06/20 10:08:14;;;;;;;3.90;1.42;;;;;;;16.88;71.80;98629.88;5017303;28;20393;-79
2022/06/20 10:11:05;;;;;;;1.67;1.38;;;;;;;16.80;71.81;98614.34;5025859;28;20496;-80
2022/06/20 10:13:50;;;;;;;2.30;2.10;;;;;;;16.79;72.81;98654.00;5023316;28;20119;-79
2022/06/20 10:16:30;;;;;;;1.10;1.10;;;;;;;16.84;71.85;98651.22;5039870;28;20065;-79
2022/06/20 10:18:58;;;;;;;1.20;0.98;;;;;;;16.97;71.57;98663.94;5022364;28;20626;-79
2022/06/20 10:21:40;;;;;;;1.50;1.13;;;;;;;16.75;71.96;98673.75;5041625;28;20029;-80
2022/06/20 10:24:11;;;;;;;1.30;1.20;;;;;;;16.80;72.06;98682.56;5023885;28;20021;-79
2022/06/20 10:26:40;;;;;;;2.42;1.33;;;;;;;16.81;71.80;98691.44;5038135;28;20977;-80
2022/06/20 10:29:23;;;;;;;1.65;1.25;;;;;;;16.74;72.26;98685.63;5025242;28;20541;-79
2022/06/20 10:31:52;;;;;;;2.65;1.50;;;;;;;16.76;71.95;98697.72;5021344;28;20052;-79
2022/06/20 10:34:44;;;;;;;2.40;1.20;;;;;;;16.72;71.68;98690.50;5043077;28;20065;-79
2022/06/20 10:37:30;;;;;;;2.35;1.35;;;;;;;16.76;72.04;98699.59;5025691;28;20542;-79
2022/06/20 10:40:17;;;;;;;3.08;2.22;;;;;;;16.37;73.11;98691.75;5023742;28;20029;-79
2022/06/20 10:42:56;;;;;;;2.78;1.65;;;;;;;16.13;74.43;98685.59;5042275;28;20052;-78
2022/06/20 10:45:42;;;;;;;0.90;0.90;;;;;;;16.91;72.32;98678.59;5019305;28;20075;-78
2022/06/20 10:48:17;;;;;;;2.95;1.33;;;;;;;16.55;73.98;98674.03;5027053;28;20059;-78
2022/06/20 10:51:02;;;;;;;2.20;1.92;;;;;;;16.63;74.34;98666.09;5030513;28;20033;-78
2022/06/20 10:53:38;;;;;;;1.73;1.20;;;;;;;17.30;70.91;98661.25;5022519;28;20021;-78
2022/06/20 10:56:27;;;;;;;1.40;1.30;;;;;;;17.17;71.16;98649.31;5028088;28;20029;-79
2022/06/20 10:59:16;;;;;;;7.15;1.70;;;;;;;17.16;71.79;98672.81;5043949;28;20397;-78
2022/06/20 11:01:53;;;;;;;2.90;1.17;;;;;;;17.23;71.26;98683.22;5025049;28;20037;-78
2022/06/20 11:04:28;;;;;;;1.60;1.50;;;;;;;16.90;72.14;98695.09;5031832;28;20065;-78
2022/06/20 11:07:04;;;;;;;3.67;1.63;;;;;;;16.88;71.79;98673.81;5029738;28;20026;-78
2022/06/20 11:09:32;;;;;;;;;;;;;;;16.72;72.96;98671.63;5025534;28;20489;-78
2022/06/20 11:12:15;;;;;;;4.68;2.00;;;;;;;16.96;71.98;98677.72;5024610;28;19917;-78
2022/06/20 11:14:51;;;;;;;2.38;1.77;;;;;;;17.15;71.11;98667.69;5034423;28;20468;-78
2022/06/20 11:17:41;;;;;;;6.28;2.85;;;;;;;16.67;73.20;98671.69;5029336;28;20017;-78
2022/06/20 11:20:37;;;;;;;8.02;2.85;;;;;;;16.81;73.26;98665.28;5046400;28;20083;-78
2022/06/20 11:23:26;;;;;;;2.83;1.90;;;;;;;17.20;71.89;98691.91;5035865;28;20043;-78
2022/06/20 11:26:05;;;;;;;4.20;1.63;;;;;;;17.15;72.15;98679.28;5015148;28;20057;-78
2022/06/20 11:28:48;;;;;;;6.57;3.00;;;;;;;17.44;71.21;98679.06;5026335;28;20025;-78
2022/06/20 11:31:22;;;;;;;3.80;1.60;;;;;;;17.64;70.25;98680.66;5028865;28;20473;-78
2022/06/20 11:34:03;;;;;;;3.75;2.05;;;;;;;17.71;69.97;98695.34;5032530;28;20017;-78
2022/06/20 11:36:44;;;;;;;2.42;1.77;;;;;;;17.73;69.56;98706.66;5030704;28;20040;-78
2022/06/20 11:39:22;;;;;;;5.85;1.98;;;;;;;17.63;69.53;98709.53;5025962;28;20029;-78
2022/06/20 11:42:00;;;;;;;4.00;2.10;;;;;;;17.74;69.44;98710.94;5026449;28;20036;-78
2022/06/20 11:44:37;;;;;;;3.97;2.25;;;;;;;17.65;70.00;98706.53;5021550;28;20033;-78
2022/06/20 11:47:03;;;;;;;3.92;2.22;;;;;;;17.70;69.17;98714.53;5029536;28;20112;-78
2022/06/20 11:49:43;;;;;;;6.15;2.60;;;;;;;17.67;69.53;98701.66;5027887;28;20136;-77
2022/06/20 11:52:18;;;;;;;7.78;2.30;;;;;;;17.55;69.66;98704.81;5012579;28;20060;-78
2022/06/20 11:55:05;;;;;;;8.65;3.80;;;;;;;17.26;71.11;98701.50;5031793;28;20120;-78
2022/06/20 11:57:54;;;;;;;3.90;2.22;;;;;;;17.26;71.43;98706.91;5037781;28;20361;-78
2022/06/20 12:00:27;;;;;;;5.50;2.40;;;;;;;17.48;70.76;98704.38;5030998;28;20037;-77
2022/06/20 12:03:29;;;;;;;3.45;1.73;;;;;;;17.96;68.88;98710.25;5040297;28;20059;-77
2022/06/20 12:05:55;;;;;;;6.32;2.05;;;;;;;17.98;69.27;98703.47;5027896;28;20473;-77
2022/06/20 12:08:40;;;;;;;4.50;2.00;;;;;;;17.98;69.30;98702.66;5028658;28;20023;-77
2022/06/20 12:11:15;;;;;;;3.72;1.95;;;;;;;18.13;69.59;98709.69;5025352;28;20027;-77
2022/06/20 12:14:09;;;;;;;4.47;1.98;;;;;;;18.37;68.86;98718.38;5028759;28;20100;-77
2022/06/20 12:17:02;;;;;;;5.25;2.08;;;;;;;18.63;67.78;98709.44;5030210;28;20027;-77
2022/06/20 12:25:37;;;;;;;4.07;2.20;;;;;;;19.01;67.46;98701.81;5025686;28;20527;-77